sensor_id;sensor_type;location;lat;lon;timestamp;P1;durP1;ratioP1;P2;durP2;ratioP2
21162;SDS011;10739;52.198;20.908;2023-05-19T00:02:23;1.73;;;1.55;;
21162;SDS011;10739;52.198;20.908;2023-05-19T00:04:51;3.22;;;1.90;;
21162;SDS011;10739;52.198;20.908;2023-05-19T00:07:17;3.38;;;2.35;;
21162;SDS011;10739;52.198;20.908;2023-05-19T00:09:46;4.68;;;2.33;;
21162;SDS011;10739;52.198;20.908;2023-05-19T00:12:12;5.72;;;1.80;;
21162;SDS011;10739;52.198;20.908;2023-05-19T00:14:40;2.00;;;1.48;;
21162;SDS011;10739;52.198;20.908;2023-05-19T00:17:07;2.58;;;1.70;;
21162;SDS011;10739;52.198;20.908;2023-05-19T00:19:33;2.40;;;1.75;;
21162;SDS011;10739;52.198;20.908;2023-05-19T00:21:59;3.88;;;1.88;;
21162;SDS011;10739;52.198;20.908;2023-05-19T00:24:26;2.03;;;1.80;;
21162;SDS011;10739;52.198;20.908;2023-05-19T00:26:52;4.38;;;1.80;;
21162;SDS011;10739;52.198;20.908;2023-05-19T00:29:19;2.47;;;1.80;;
21162;SDS011;10739;52.198;20.908;2023-05-19T00:31:46;3.25;;;2.22;;
21162;SDS011;10739;52.198;20.908;2023-05-19T00:34:12;2.95;;;1.60;;
21162;SDS011;10739;52.198;20.908;2023-05-19T00:36:39;2.97;;;1.70;;
21162;SDS011;10739;52.198;20.908;2023-05-19T00:39:07;1.75;;;1.48;;
21162;SDS011;10739;52.198;20.908;2023-05-19T00:41:33;1.67;;;1.58;;
21162;SDS011;10739;52.198;20.908;2023-05-19T00:43:59;2.60;;;1.52;;
21162;SDS011;10739;52.198;20.908;2023-05-19T00:46:25;1.70;;;1.42;;
21162;SDS011;10739;52.198;20.908;2023-05-19T00:48:52;3.13;;;1.73;;
21162;SDS011;10739;52.198;20.908;2023-05-19T00:51:18;2.70;;;1.50;;
21162;SDS011;10739;52.198;20.908;2023-05-19T00:53:45;6.60;;;1.50;;
21162;SDS011;10739;52.198;20.908;2023-05-19T00:56:15;4.97;;;1.67;;
21162;SDS011;10739;52.198;20.908;2023-05-19T00:58:43;1.63;;;1.45;;
21162;SDS011;10739;52.198;20.908;2023-05-19T01:01:10;1.73;;;1.38;;
21162;SDS011;10739;52.198;20.908;2023-05-19T01:03:38;2.45;;;1.65;;
21162;SDS011;10739;52.198;20.908;2023-05-19T01:06:07;3.92;;;1.58;;
21162;SDS011;10739;52.198;20.908;2023-05-19T01:08:34;2.40;;;1.45;;
21162;SDS011;10739;52.198;20.908;2023-05-19T01:11:03;4.47;;;1.70;;
21162;SDS011;10739;52.198;20.908;2023-05-19T01:13:31;2.05;;;1.65;;
21162;SDS011;10739;52.198;20.908;2023-05-19T01:21:41;3.72;;;1.75;;
21162;SDS011;10739;52.198;20.908;2023-05-19T01:30:25;3.45;;;1.80;;
21162;SDS011;10739;52.198;20.908;2023-05-19T01:33:06;2.65;;;1.45;;
21162;SDS011;10739;52.198;20.908;2023-05-19T01:35:36;5.15;;;1.60;;
21162;SDS011;10739;52.198;20.908;2023-05-19T01:38:04;2.55;;;1.80;;
21162;SDS011;10739;52.198;20.908;2023-05-19T01:40:36;2.75;;;1.70;;
21162;SDS011;10739;52.198;20.908;2023-05-19T01:43:05;2.45;;;1.70;;
21162;SDS011;10739;52.198;20.908;2023-05-19T01:45:35;2.50;;;1.85;;
21162;SDS011;10739;52.198;20.908;2023-05-19T01:48:02;3.80;;;1.88;;
21162;SDS011;10739;52.198;20.908;2023-05-19T01:50:30;2.60;;;1.58;;
21162;SDS011;10739;52.198;20.908;2023-05-19T01:52:57;5.10;;;1.65;;
21162;SDS011;10739;52.198;20.908;2023-05-19T01:55:24;2.55;;;2.10;;
21162;SDS011;10739;52.198;20.908;2023-05-19T01:58:00;4.50;;;2.10;;
21162;SDS011;10739;52.198;20.908;2023-05-19T02:06:51;3.08;;;1.40;;
21162;SDS011;10739;52.198;20.908;2023-05-19T02:09:36;1.73;;;1.63;;
21162;SDS011;10739;52.198;20.908;2023-05-19T02:12:19;2.90;;;1.90;;
21162;SDS011;10739;52.198;20.908;2023-05-19T02:15:00;3.28;;;2.10;;
21162;SDS011;10739;52.198;20.908;2023-05-19T02:17:35;2.72;;;2.05;;
21162;SDS011;10739;52.198;20.908;2023-05-19T02:20:06;2.78;;;1.77;;
21162;SDS011;10739;52.198;20.908;2023-05-19T02:22:34;4.20;;;2.30;;
21162;SDS011;10739;52.198;20.908;2023-05-19T02:25:00;3.13;;;2.13;;
21162;SDS011;10739;52.198;20.908;2023-05-19T02:27:27;5.72;;;2.42;;
21162;SDS011;10739;52.198;20.908;2023-05-19T02:29:54;2.63;;;2.00;;
21162;SDS011;10739;52.198;20.908;2023-05-19T02:32:20;2.67;;;2.03;;
21162;SDS011;10739;52.198;20.908;2023-05-19T02:34:46;5.53;;;2.40;;
21162;SDS011;10739;52.198;20.908;2023-05-19T02:37:13;4.70;;;2.42;;
21162;SDS011;10739;52.198;20.908;2023-05-19T02:39:40;3.13;;;2.38;;
21162;SDS011;10739;52.198;20.908;2023-05-19T02:42:07;4.43;;;2.30;;
21162;SDS011;10739;52.198;20.908;2023-05-19T02:44:33;4.28;;;2.58;;
21162;SDS011;10739;52.198;20.908;2023-05-19T02:47:00;3.92;;;2.40;;
21162;SDS011;10739;52.198;20.908;2023-05-19T02:49:27;5.95;;;2.97;;
21162;SDS011;10739;52.198;20.908;2023-05-19T02:51:55;8.52;;;2.47;;
21162;SDS011;10739;52.198;20.908;2023-05-19T02:54:21;5.57;;;2.58;;
21162;SDS011;10739;52.198;20.908;2023-05-19T02:56:48;6.85;;;2.55;;
21162;SDS011;10739;52.198;20.908;2023-05-19T02:59:14;6.85;;;2.63;;
21162;SDS011;10739;52.198;20.908;2023-05-19T03:01:40;5.13;;;2.53;;
21162;SDS011;10739;52.198;20.908;2023-05-19T03:04:07;5.18;;;3.03;;
21162;SDS011;10739;52.198;20.908;2023-05-19T03:06:33;5.55;;;3.10;;
21162;SDS011;10739;52.198;20.908;2023-05-19T03:09:00;6.70;;;3.17;;
21162;SDS011;10739;52.198;20.908;2023-05-19T03:11:27;4.32;;;3.17;;
21162;SDS011;10739;52.198;20.908;2023-05-19T03:13:55;5.47;;;2.85;;
21162;SDS011;10739;52.198;20.908;2023-05-19T03:16:21;6.53;;;3.25;;
21162;SDS011;10739;52.198;20.908;2023-05-19T03:18:48;8.68;;;3.08;;
21162;SDS011;10739;52.198;20.908;2023-05-19T03:21:15;6.45;;;3.03;;
21162;SDS011;10739;52.198;20.908;2023-05-19T03:23:41;6.35;;;3.17;;
21162;SDS011;10739;52.198;20.908;2023-05-19T03:26:07;5.45;;;3.60;;
21162;SDS011;10739;52.198;20.908;2023-05-19T03:28:33;4.85;;;3.40;;
21162;SDS011;10739;52.198;20.908;2023-05-19T03:31:00;5.30;;;3.20;;
21162;SDS011;10739;52.198;20.908;2023-05-19T03:33:26;4.63;;;3.42;;
21162;SDS011;10739;52.198;20.908;2023-05-19T03:35:55;5.95;;;3.03;;
21162;SDS011;10739;52.198;20.908;2023-05-19T03:38:22;4.75;;;3.10;;
21162;SDS011;10739;52.198;20.908;2023-05-19T03:40:48;8.38;;;3.55;;
21162;SDS011;10739;52.198;20.908;2023-05-19T03:43:14;6.20;;;3.55;;
21162;SDS011;10739;52.198;20.908;2023-05-19T03:45:41;7.28;;;3.70;;
21162;SDS011;10739;52.198;20.908;2023-05-19T03:48:07;6.07;;;3.67;;
21162;SDS011;10739;52.198;20.908;2023-05-19T03:50:33;7.30;;;3.55;;
21162;SDS011;10739;52.198;20.908;2023-05-19T03:53:02;5.57;;;3.67;;
21162;SDS011;10739;52.198;20.908;2023-05-19T03:55:28;5.75;;;3.80;;
21162;SDS011;10739;52.198;20.908;2023-05-19T03:57:54;5.25;;;4.30;;
21162;SDS011;10739;52.198;20.908;2023-05-19T04:00:21;8.50;;;3.80;;
21162;SDS011;10739;52.198;20.908;2023-05-19T04:02:48;5.47;;;3.80;;
21162;SDS011;10739;52.198;20.908;2023-05-19T04:05:14;4.70;;;3.45;;
21162;SDS011;10739;52.198;20.908;2023-05-19T04:07:40;5.05;;;3.40;;
21162;SDS011;10739;52.198;20.908;2023-05-19T04:10:07;4.22;;;3.53;;
21162;SDS011;10739;52.198;20.908;2023-05-19T04:12:33;5.22;;;3.92;;
21162;SDS011;10739;52.198;20.908;2023-05-19T04:15:00;3.88;;;3.35;;
21162;SDS011;10739;52.198;20.908;2023-05-19T04:17:26;5.63;;;3.67;;
21162;SDS011;10739;52.198;20.908;2023-05-19T04:19:52;7.50;;;4.25;;
21162;SDS011;10739;52.198;20.908;2023-05-19T04:22:19;8.70;;;4.22;;
21162;SDS011;10739;52.198;20.908;2023-05-19T04:24:46;5.97;;;4.35;;
21162;SDS011;10739;52.198;20.908;2023-05-19T04:27:13;4.82;;;3.83;;
21162;SDS011;10739;52.198;20.908;2023-05-19T04:29:40;5.38;;;3.78;;
21162;SDS011;10739;52.198;20.908;2023-05-19T04:32:06;9.93;;;4.10;;
21162;SDS011;10739;52.198;20.908;2023-05-19T04:34:33;6.15;;;3.70;;
21162;SDS011;10739;52.198;20.908;2023-05-19T04:37:00;5.47;;;3.35;;
21162;SDS011;10739;52.198;20.908;2023-05-19T04:39:26;5.95;;;3.67;;
21162;SDS011;10739;52.198;20.908;2023-05-19T04:41:53;6.20;;;3.53;;
21162;SDS011;10739;52.198;20.908;2023-05-19T04:44:21;5.22;;;3.40;;
21162;SDS011;10739;52.198;20.908;2023-05-19T04:46:47;3.63;;;2.95;;
21162;SDS011;10739;52.198;20.908;2023-05-19T04:49:14;4.50;;;2.90;;
21162;SDS011;10739;52.198;20.908;2023-05-19T04:51:40;4.20;;;3.22;;
21162;SDS011;10739;52.198;20.908;2023-05-19T04:54:07;3.55;;;3.22;;
21162;SDS011;10739;52.198;20.908;2023-05-19T04:56:34;3.72;;;3.20;;
21162;SDS011;10739;52.198;20.908;2023-05-19T04:59:01;4.10;;;3.25;;
21162;SDS011;10739;52.198;20.908;2023-05-19T05:01:28;5.03;;;3.42;;
21162;SDS011;10739;52.198;20.908;2023-05-19T05:03:55;5.93;;;3.58;;
21162;SDS011;10739;52.198;20.908;2023-05-19T05:06:23;6.28;;;3.42;;
21162;SDS011;10739;52.198;20.908;2023-05-19T05:08:50;5.65;;;3.35;;
21162;SDS011;10739;52.198;20.908;2023-05-19T05:11:16;8.32;;;3.60;;
21162;SDS011;10739;52.198;20.908;2023-05-19T05:13:43;7.00;;;3.15;;
21162;SDS011;10739;52.198;20.908;2023-05-19T05:16:10;3.53;;;3.15;;
21162;SDS011;10739;52.198;20.908;2023-05-19T05:18:37;5.80;;;3.88;;
21162;SDS011;10739;52.198;20.908;2023-05-19T05:21:04;4.88;;;3.25;;
21162;SDS011;10739;52.198;20.908;2023-05-19T05:23:32;8.80;;;3.65;;
21162;SDS011;10739;52.198;20.908;2023-05-19T05:25:58;5.20;;;3.72;;
21162;SDS011;10739;52.198;20.908;2023-05-19T05:28:32;6.50;;;3.60;;
21162;SDS011;10739;52.198;20.908;2023-05-19T05:30:59;6.05;;;3.70;;
21162;SDS011;10739;52.198;20.908;2023-05-19T05:33:25;6.53;;;3.78;;
21162;SDS011;10739;52.198;20.908;2023-05-19T05:35:51;7.13;;;3.40;;
21162;SDS011;10739;52.198;20.908;2023-05-19T05:38:18;4.95;;;3.30;;
21162;SDS011;10739;52.198;20.908;2023-05-19T05:40:45;5.55;;;3.63;;
21162;SDS011;10739;52.198;20.908;2023-05-19T05:43:11;5.18;;;3.17;;
21162;SDS011;10739;52.198;20.908;2023-05-19T05:45:37;5.65;;;3.47;;
21162;SDS011;10739;52.198;20.908;2023-05-19T05:48:04;6.47;;;3.42;;
21162;SDS011;10739;52.198;20.908;2023-05-19T05:50:31;5.68;;;3.05;;
21162;SDS011;10739;52.198;20.908;2023-05-19T05:52:57;4.72;;;3.22;;
21162;SDS011;10739;52.198;20.908;2023-05-19T05:55:27;4.18;;;3.33;;
21162;SDS011;10739;52.198;20.908;2023-05-19T05:57:54;6.30;;;3.30;;
21162;SDS011;10739;52.198;20.908;2023-05-19T06:00:21;5.28;;;2.90;;
21162;SDS011;10739;52.198;20.908;2023-05-19T06:02:48;6.57;;;3.95;;
21162;SDS011;10739;52.198;20.908;2023-05-19T06:05:15;4.43;;;3.13;;
21162;SDS011;10739;52.198;20.908;2023-05-19T06:07:42;5.10;;;3.38;;
21162;SDS011;10739;52.198;20.908;2023-05-19T06:10:09;8.82;;;3.40;;
21162;SDS011;10739;52.198;20.908;2023-05-19T06:12:47;3.83;;;3.10;;
21162;SDS011;10739;52.198;20.908;2023-05-19T06:15:14;3.90;;;3.17;;
21162;SDS011;10739;52.198;20.908;2023-05-19T06:17:41;4.13;;;3.17;;
21162;SDS011;10739;52.198;20.908;2023-05-19T06:20:07;5.63;;;3.10;;
21162;SDS011;10739;52.198;20.908;2023-05-19T06:22:34;4.13;;;3.13;;
21162;SDS011;10739;52.198;20.908;2023-05-19T06:25:01;8.18;;;3.28;;
21162;SDS011;10739;52.198;20.908;2023-05-19T06:27:28;4.45;;;3.22;;
21162;SDS011;10739;52.198;20.908;2023-05-19T06:29:55;5.32;;;3.10;;
21162;SDS011;10739;52.198;20.908;2023-05-19T06:32:22;5.38;;;2.90;;
21162;SDS011;10739;52.198;20.908;2023-05-19T06:34:48;4.30;;;2.75;;
21162;SDS011;10739;52.198;20.908;2023-05-19T06:37:22;4.97;;;2.97;;
21162;SDS011;10739;52.198;20.908;2023-05-19T06:39:49;6.85;;;3.17;;
21162;SDS011;10739;52.198;20.908;2023-05-19T06:42:17;4.68;;;2.50;;
21162;SDS011;10739;52.198;20.908;2023-05-19T06:44:50;8.73;;;3.30;;
21162;SDS011;10739;52.198;20.908;2023-05-19T06:47:17;6.78;;;3.20;;
21162;SDS011;10739;52.198;20.908;2023-05-19T06:49:44;7.00;;;2.75;;
21162;SDS011;10739;52.198;20.908;2023-05-19T06:52:15;6.32;;;2.92;;
21162;SDS011;10739;52.198;20.908;2023-05-19T06:54:41;4.78;;;2.70;;
21162;SDS011;10739;52.198;20.908;2023-05-19T06:57:07;5.40;;;2.90;;
21162;SDS011;10739;52.198;20.908;2023-05-19T06:59:34;5.13;;;3.05;;
21162;SDS011;10739;52.198;20.908;2023-05-19T07:02:02;6.85;;;3.20;;
21162;SDS011;10739;52.198;20.908;2023-05-19T07:04:28;4.63;;;3.13;;
21162;SDS011;10739;52.198;20.908;2023-05-19T07:06:55;7.22;;;3.10;;
21162;SDS011;10739;52.198;20.908;2023-05-19T07:09:21;5.03;;;3.20;;
21162;SDS011;10739;52.198;20.908;2023-05-19T07:11:48;5.53;;;3.38;;
21162;SDS011;10739;52.198;20.908;2023-05-19T07:14:14;4.85;;;3.20;;
21162;SDS011;10739;52.198;20.908;2023-05-19T07:16:40;7.22;;;4.00;;
21162;SDS011;10739;52.198;20.908;2023-05-19T07:19:07;4.65;;;3.15;;
21162;SDS011;10739;52.198;20.908;2023-05-19T07:21:33;6.70;;;3.10;;
21162;SDS011;10739;52.198;20.908;2023-05-19T07:24:00;8.23;;;3.00;;
21162;SDS011;10739;52.198;20.908;2023-05-19T07:26:26;9.02;;;4.15;;
21162;SDS011;10739;52.198;20.908;2023-05-19T07:28:53;6.45;;;4.28;;
21162;SDS011;10739;52.198;20.908;2023-05-19T07:31:19;7.05;;;3.10;;
21162;SDS011;10739;52.198;20.908;2023-05-19T07:33:46;8.35;;;3.70;;
21162;SDS011;10739;52.198;20.908;2023-05-19T07:36:12;5.90;;;3.70;;
21162;SDS011;10739;52.198;20.908;2023-05-19T07:38:38;5.13;;;3.50;;
21162;SDS011;10739;52.198;20.908;2023-05-19T07:41:05;8.73;;;4.05;;
21162;SDS011;10739;52.198;20.908;2023-05-19T07:43:31;6.63;;;3.53;;
21162;SDS011;10739;52.198;20.908;2023-05-19T07:45:57;7.50;;;3.97;;
21162;SDS011;10739;52.198;20.908;2023-05-19T07:48:24;7.35;;;4.00;;
21162;SDS011;10739;52.198;20.908;2023-05-19T07:50:51;11.07;;;3.75;;
21162;SDS011;10739;52.198;20.908;2023-05-19T07:53:18;8.50;;;4.13;;
21162;SDS011;10739;52.198;20.908;2023-05-19T07:55:45;6.38;;;3.55;;
21162;SDS011;10739;52.198;20.908;2023-05-19T07:58:11;9.32;;;3.67;;
21162;SDS011;10739;52.198;20.908;2023-05-19T08:00:37;5.90;;;3.38;;
21162;SDS011;10739;52.198;20.908;2023-05-19T08:03:05;7.63;;;3.47;;
21162;SDS011;10739;52.198;20.908;2023-05-19T08:05:33;5.47;;;3.70;;
21162;SDS011;10739;52.198;20.908;2023-05-19T08:08:00;7.85;;;3.65;;
21162;SDS011;10739;52.198;20.908;2023-05-19T08:10:27;7.70;;;3.95;;
21162;SDS011;10739;52.198;20.908;2023-05-19T08:12:54;9.93;;;3.80;;
21162;SDS011;10739;52.198;20.908;2023-05-19T08:15:20;7.43;;;3.63;;
21162;SDS011;10739;52.198;20.908;2023-05-19T08:17:46;10.13;;;4.55;;
21162;SDS011;10739;52.198;20.908;2023-05-19T08:20:13;8.77;;;4.25;;
21162;SDS011;10739;52.198;20.908;2023-05-19T08:22:39;7.93;;;4.13;;
21162;SDS011;10739;52.198;20.908;2023-05-19T08:25:05;10.57;;;4.55;;
21162;SDS011;10739;52.198;20.908;2023-05-19T08:27:32;10.82;;;4.43;;
21162;SDS011;10739;52.198;20.908;2023-05-19T08:29:58;13.73;;;4.43;;
21162;SDS011;10739;52.198;20.908;2023-05-19T08:32:25;9.68;;;4.45;;
21162;SDS011;10739;52.198;20.908;2023-05-19T08:34:51;8.15;;;4.85;;
21162;SDS011;10739;52.198;20.908;2023-05-19T08:37:17;11.93;;;4.80;;
21162;SDS011;10739;52.198;20.908;2023-05-19T08:39:44;11.02;;;4.35;;
21162;SDS011;10739;52.198;20.908;2023-05-19T08:42:10;10.48;;;4.45;;
21162;SDS011;10739;52.198;20.908;2023-05-19T08:44:36;13.25;;;5.15;;
21162;SDS011;10739;52.198;20.908;2023-05-19T08:47:04;13.07;;;4.82;;
21162;SDS011;10739;52.198;20.908;2023-05-19T08:49:40;13.38;;;5.03;;
21162;SDS011;10739;52.198;20.908;2023-05-19T08:55:14;14.50;;;4.80;;
21162;SDS011;10739;52.198;20.908;2023-05-19T08:57:58;13.07;;;5.28;;
21162;SDS011;10739;52.198;20.908;2023-05-19T09:00:28;10.68;;;5.22;;
21162;SDS011;10739;52.198;20.908;2023-05-19T09:02:55;17.23;;;5.03;;
21162;SDS011;10739;52.198;20.908;2023-05-19T09:05:22;16.70;;;5.18;;
21162;SDS011;10739;52.198;20.908;2023-05-19T09:07:48;14.68;;;4.97;;
21162;SDS011;10739;52.198;20.908;2023-05-19T09:10:15;12.52;;;5.10;;
21162;SDS011;10739;52.198;20.908;2023-05-19T09:12:45;10.30;;;4.40;;
21162;SDS011;10739;52.198;20.908;2023-05-19T09:15:15;8.02;;;4.45;;
21162;SDS011;10739;52.198;20.908;2023-05-19T09:17:45;14.65;;;5.18;;
21162;SDS011;10739;52.198;20.908;2023-05-19T09:20:15;10.73;;;4.70;;
21162;SDS011;10739;52.198;20.908;2023-05-19T09:22:42;12.00;;;5.03;;
21162;SDS011;10739;52.198;20.908;2023-05-19T09:25:17;13.70;;;4.68;;
21162;SDS011;10739;52.198;20.908;2023-05-19T09:27:46;11.07;;;5.05;;
21162;SDS011;10739;52.198;20.908;2023-05-19T09:30:14;7.10;;;4.93;;
21162;SDS011;10739;52.198;20.908;2023-05-19T09:32:41;12.63;;;4.82;;
21162;SDS011;10739;52.198;20.908;2023-05-19T09:35:09;12.05;;;4.97;;
21162;SDS011;10739;52.198;20.908;2023-05-19T09:37:40;11.30;;;4.57;;
21162;SDS011;10739;52.198;20.908;2023-05-19T09:40:08;11.98;;;5.07;;
21162;SDS011;10739;52.198;20.908;2023-05-19T09:42:37;12.60;;;4.80;;
21162;SDS011;10739;52.198;20.908;2023-05-19T09:45:05;9.93;;;4.85;;
21162;SDS011;10739;52.198;20.908;2023-05-19T09:47:36;12.57;;;5.47;;
21162;SDS011;10739;52.198;20.908;2023-05-19T09:50:07;13.32;;;5.32;;
21162;SDS011;10739;52.198;20.908;2023-05-19T09:55:12;15.48;;;5.50;;
21162;SDS011;10739;52.198;20.908;2023-05-19T09:57:39;15.40;;;5.10;;
21162;SDS011;10739;52.198;20.908;2023-05-19T10:00:06;13.63;;;5.43;;
21162;SDS011;10739;52.198;20.908;2023-05-19T10:02:44;12.93;;;5.10;;
21162;SDS011;10739;52.198;20.908;2023-05-19T10:05:17;19.77;;;5.30;;
21162;SDS011;10739;52.198;20.908;2023-05-19T10:07:45;17.58;;;6.45;;
21162;SDS011;10739;52.198;20.908;2023-05-19T10:10:14;17.63;;;5.78;;
21162;SDS011;10739;52.198;20.908;2023-05-19T10:12:40;14.52;;;6.05;;
21162;SDS011;10739;52.198;20.908;2023-05-19T10:15:08;19.80;;;6.47;;
21162;SDS011;10739;52.198;20.908;2023-05-19T10:17:38;12.93;;;5.97;;
21162;SDS011;10739;52.198;20.908;2023-05-19T10:20:09;20.15;;;6.22;;
21162;SDS011;10739;52.198;20.908;2023-05-19T10:22:38;17.83;;;5.53;;
21162;SDS011;10739;52.198;20.908;2023-05-19T10:25:06;15.52;;;6.10;;
21162;SDS011;10739;52.198;20.908;2023-05-19T10:27:35;17.42;;;6.90;;
21162;SDS011;10739;52.198;20.908;2023-05-19T10:30:06;15.70;;;5.97;;
21162;SDS011;10739;52.198;20.908;2023-05-19T10:32:40;13.57;;;5.45;;
21162;SDS011;10739;52.198;20.908;2023-05-19T10:46:41;16.73;;;6.32;;
21162;SDS011;10739;52.198;20.908;2023-05-19T10:49:08;18.58;;;6.05;;
21162;SDS011;10739;52.198;20.908;2023-05-19T10:51:34;20.67;;;6.93;;
21162;SDS011;10739;52.198;20.908;2023-05-19T10:54:02;17.58;;;6.40;;
21162;SDS011;10739;52.198;20.908;2023-05-19T10:56:33;17.23;;;6.35;;
21162;SDS011;10739;52.198;20.908;2023-05-19T10:59:06;17.00;;;6.10;;
21162;SDS011;10739;52.198;20.908;2023-05-19T11:01:56;17.80;;;6.63;;
21162;SDS011;10739;52.198;20.908;2023-05-19T11:04:38;18.80;;;6.68;;
21162;SDS011;10739;52.198;20.908;2023-05-19T11:07:14;19.17;;;7.10;;
21162;SDS011;10739;52.198;20.908;2023-05-19T11:09:52;16.40;;;7.25;;
21162;SDS011;10739;52.198;20.908;2023-05-19T11:12:22;18.67;;;6.47;;
21162;SDS011;10739;52.198;20.908;2023-05-19T11:14:53;18.02;;;6.45;;
21162;SDS011;10739;52.198;20.908;2023-05-19T11:17:19;15.43;;;7.03;;
21162;SDS011;10739;52.198;20.908;2023-05-19T11:19:51;16.35;;;5.82;;
21162;SDS011;10739;52.198;20.908;2023-05-19T11:22:26;18.52;;;5.68;;
21162;SDS011;10739;52.198;20.908;2023-05-19T11:24:53;12.93;;;5.97;;
21162;SDS011;10739;52.198;20.908;2023-05-19T11:27:27;19.75;;;6.43;;
21162;SDS011;10739;52.198;20.908;2023-05-19T11:29:59;20.48;;;7.10;;
21162;SDS011;10739;52.198;20.908;2023-05-19T11:32:39;14.48;;;6.38;;
21162;SDS011;10739;52.198;20.908;2023-05-19T11:35:08;16.25;;;6.18;;
21162;SDS011;10739;52.198;20.908;2023-05-19T11:37:35;15.27;;;6.53;;
21162;SDS011;10739;52.198;20.908;2023-05-19T11:40:05;13.27;;;5.95;;
21162;SDS011;10739;52.198;20.908;2023-05-19T11:42:32;15.02;;;6.07;;
21162;SDS011;10739;52.198;20.908;2023-05-19T11:45:00;14.20;;;6.22;;
21162;SDS011;10739;52.198;20.908;2023-05-19T11:47:29;14.10;;;6.43;;
21162;SDS011;10739;52.198;20.908;2023-05-19T11:49:59;15.27;;;5.22;;
21162;SDS011;10739;52.198;20.908;2023-05-19T11:52:26;15.88;;;6.90;;
21162;SDS011;10739;52.198;20.908;2023-05-19T11:54:52;12.05;;;6.30;;
21162;SDS011;10739;52.198;20.908;2023-05-19T11:57:18;14.63;;;6.18;;
21162;SDS011;10739;52.198;20.908;2023-05-19T11:59:45;14.50;;;6.95;;
21162;SDS011;10739;52.198;20.908;2023-05-19T12:04:48;24.20;;;6.70;;
21162;SDS011;10739;52.198;20.908;2023-05-19T12:07:20;14.35;;;6.65;;
21162;SDS011;10739;52.198;20.908;2023-05-19T12:09:49;12.18;;;5.70;;
21162;SDS011;10739;52.198;20.908;2023-05-19T12:12:17;13.00;;;5.43;;
21162;SDS011;10739;52.198;20.908;2023-05-19T12:14:45;8.93;;;5.40;;
21162;SDS011;10739;52.198;20.908;2023-05-19T12:17:15;13.35;;;5.65;;
21162;SDS011;10739;52.198;20.908;2023-05-19T12:19:45;15.77;;;5.70;;
21162;SDS011;10739;52.198;20.908;2023-05-19T12:22:13;16.60;;;6.47;;
21162;SDS011;10739;52.198;20.908;2023-05-19T12:24:41;12.38;;;5.70;;
21162;SDS011;10739;52.198;20.908;2023-05-19T12:29:49;19.55;;;6.07;;
21162;SDS011;10739;52.198;20.908;2023-05-19T12:32:17;9.10;;;5.05;;
21162;SDS011;10739;52.198;20.908;2023-05-19T12:34:47;10.02;;;5.05;;
21162;SDS011;10739;52.198;20.908;2023-05-19T12:37:15;17.23;;;5.45;;
21162;SDS011;10739;52.198;20.908;2023-05-19T12:39:42;16.35;;;5.85;;
21162;SDS011;10739;52.198;20.908;2023-05-19T12:42:08;10.98;;;5.75;;
21162;SDS011;10739;52.198;20.908;2023-05-19T12:47:11;9.88;;;5.10;;
21162;SDS011;10739;52.198;20.908;2023-05-19T12:49:52;13.10;;;5.30;;
21162;SDS011;10739;52.198;20.908;2023-05-19T12:55:10;12.25;;;5.80;;
21162;SDS011;10739;52.198;20.908;2023-05-19T12:57:42;18.40;;;6.90;;
21162;SDS011;10739;52.198;20.908;2023-05-19T13:00:13;11.13;;;5.43;;
21162;SDS011;10739;52.198;20.908;2023-05-19T13:02:53;11.32;;;4.80;;
21162;SDS011;10739;52.198;20.908;2023-05-19T13:05:34;10.02;;;5.50;;
21162;SDS011;10739;52.198;20.908;2023-05-19T13:08:11;9.60;;;5.15;;
21162;SDS011;10739;52.198;20.908;2023-05-19T13:10:40;8.63;;;5.55;;
21162;SDS011;10739;52.198;20.908;2023-05-19T13:13:09;11.82;;;5.38;;
21162;SDS011;10739;52.198;20.908;2023-05-19T13:15:36;9.73;;;5.35;;
21162;SDS011;10739;52.198;20.908;2023-05-19T13:18:12;13.90;;;5.60;;
21162;SDS011;10739;52.198;20.908;2023-05-19T13:20:40;9.88;;;5.72;;
21162;SDS011;10739;52.198;20.908;2023-05-19T13:23:12;10.63;;;5.38;;
21162;SDS011;10739;52.198;20.908;2023-05-19T13:25:39;10.82;;;5.35;;
21162;SDS011;10739;52.198;20.908;2023-05-19T13:28:05;9.15;;;5.35;;
21162;SDS011;10739;52.198;20.908;2023-05-19T13:30:36;13.05;;;6.05;;
21162;SDS011;10739;52.198;20.908;2023-05-19T13:33:04;9.63;;;5.57;;
21162;SDS011;10739;52.198;20.908;2023-05-19T13:35:31;12.05;;;5.85;;
21162;SDS011;10739;52.198;20.908;2023-05-19T13:38:06;8.38;;;5.55;;
21162;SDS011;10739;52.198;20.908;2023-05-19T13:40:34;10.57;;;4.90;;
21162;SDS011;10739;52.198;20.908;2023-05-19T13:43:01;13.38;;;5.45;;
21162;SDS011;10739;52.198;20.908;2023-05-19T13:45:28;10.77;;;5.60;;
21162;SDS011;10739;52.198;20.908;2023-05-19T13:47:55;11.95;;;5.60;;
21162;SDS011;10739;52.198;20.908;2023-05-19T13:50:21;15.77;;;6.15;;
21162;SDS011;10739;52.198;20.908;2023-05-19T13:52:48;14.10;;;5.60;;
21162;SDS011;10739;52.198;20.908;2023-05-19T13:55:14;9.75;;;5.38;;
21162;SDS011;10739;52.198;20.908;2023-05-19T13:57:41;11.15;;;5.50;;
21162;SDS011;10739;52.198;20.908;2023-05-19T14:00:07;7.50;;;5.05;;
21162;SDS011;10739;52.198;20.908;2023-05-19T14:02:35;12.70;;;6.10;;
21162;SDS011;10739;52.198;20.908;2023-05-19T14:05:02;13.93;;;5.57;;
21162;SDS011;10739;52.198;20.908;2023-05-19T14:07:29;13.00;;;6.05;;
21162;SDS011;10739;52.198;20.908;2023-05-19T14:09:59;14.50;;;5.65;;
21162;SDS011;10739;52.198;20.908;2023-05-19T14:15:00;6.05;;;4.78;;
21162;SDS011;10739;52.198;20.908;2023-05-19T14:17:26;12.68;;;6.13;;
21162;SDS011;10739;52.198;20.908;2023-05-19T14:19:52;10.30;;;5.65;;
21162;SDS011;10739;52.198;20.908;2023-05-19T14:22:19;13.52;;;5.72;;
21162;SDS011;10739;52.198;20.908;2023-05-19T14:24:45;10.43;;;5.57;;
21162;SDS011;10739;52.198;20.908;2023-05-19T14:27:11;9.55;;;5.63;;
21162;SDS011;10739;52.198;20.908;2023-05-19T14:29:37;12.75;;;6.20;;
21162;SDS011;10739;52.198;20.908;2023-05-19T14:32:04;13.80;;;6.25;;
21162;SDS011;10739;52.198;20.908;2023-05-19T14:34:31;8.82;;;5.43;;
21162;SDS011;10739;52.198;20.908;2023-05-19T14:36:59;11.75;;;5.32;;
21162;SDS011;10739;52.198;20.908;2023-05-19T14:39:28;8.85;;;5.60;;
21162;SDS011;10739;52.198;20.908;2023-05-19T14:41:56;14.90;;;6.50;;
21162;SDS011;10739;52.198;20.908;2023-05-19T14:44:28;8.60;;;5.20;;
21162;SDS011;10739;52.198;20.908;2023-05-19T14:46:57;17.48;;;5.95;;
21162;SDS011;10739;52.198;20.908;2023-05-19T14:49:25;11.82;;;6.45;;
21162;SDS011;10739;52.198;20.908;2023-05-19T14:51:51;9.10;;;5.90;;
21162;SDS011;10739;52.198;20.908;2023-05-19T14:54:18;10.60;;;5.75;;
21162;SDS011;10739;52.198;20.908;2023-05-19T14:56:44;10.35;;;5.50;;
21162;SDS011;10739;52.198;20.908;2023-05-19T14:59:10;13.55;;;5.20;;
21162;SDS011;10739;52.198;20.908;2023-05-19T15:01:37;9.82;;;5.13;;
21162;SDS011;10739;52.198;20.908;2023-05-19T15:04:03;10.57;;;5.70;;
21162;SDS011;10739;52.198;20.908;2023-05-19T15:06:29;13.38;;;5.68;;
21162;SDS011;10739;52.198;20.908;2023-05-19T15:08:56;12.45;;;6.00;;
21162;SDS011;10739;52.198;20.908;2023-05-19T15:11:22;9.05;;;5.50;;
21162;SDS011;10739;52.198;20.908;2023-05-19T15:13:48;9.18;;;5.47;;
21162;SDS011;10739;52.198;20.908;2023-05-19T15:16:15;11.15;;;5.90;;
21162;SDS011;10739;52.198;20.908;2023-05-19T15:18:41;12.88;;;5.85;;
21162;SDS011;10739;52.198;20.908;2023-05-19T15:21:08;10.75;;;6.03;;
21162;SDS011;10739;52.198;20.908;2023-05-19T15:23:34;10.82;;;5.78;;